Time;durP1;ratioP1;P1;durP2;ratioP2;P2;SDS_P1;SDS_P2;PMS_P1;PMS_P2;Temp;Humidity;BMP_temperature;BMP_pressure;BME280_temperature;BME280_humidity;BME280_pressure;Samples;Min_cycle;Max_cycle;Signal;HPM_P1;HPM_P2
2022/11/25 00:01:16;;;;;;;6.78;5.05;;;1.30;99.90;;;;;;5091907;28;20095;-53
2022/11/25 00:03:43;;;;;;;5.30;3.88;;;1.20;99.90;;;;;;5092113;28;20115;-52
2022/11/25 00:06:13;;;;;;;6.20;4.20;;;1.20;99.90;;;;;;5092395;28;20066;-52
2022/11/25 00:08:40;;;;;;;7.32;4.90;;;1.20;99.90;;;;;;5090669;28;20035;-54
2022/11/25 00:11:06;;;;;;;6.88;4.10;;;1.20;99.90;;;;;;5092086;28;20108;-54
2022/11/25 00:13:32;;;;;;;10.43;4.50;;;1.10;99.90;;;;;;5091735;28;20440;-51
2022/11/25 00:16:06;;;;;;;10.02;5.60;;;1.10;99.90;;;;;;5090471;28;20739;-51
2022/11/25 00:18:32;;;;;;;6.47;4.57;;;1.00;99.90;;;;;;5091662;28;20016;-51
2022/11/25 00:21:03;;;;;;;11.07;5.15;;;1.00;99.90;;;;;;5090165;28;20442;-53
2022/11/25 00:23:29;;;;;;;6.80;4.90;;;0.90;99.90;;;;;;5091926;28;20038;-52
2022/11/25 00:25:54;;;;;;;10.07;5.95;;;0.90;99.90;;;;;;5091664;28;20031;-55
2022/11/25 00:28:20;;;;;;;7.80;5.60;;;0.80;99.90;;;;;;5091691;28;20078;-52
2022/11/25 00:30:46;;;;;;;11.52;5.57;;;0.80;99.90;;;;;;5091484;28;20110;-50
2022/11/25 00:33:11;;;;;;;7.43;4.88;;;0.70;99.90;;;;;;5091765;28;20034;-51
2022/11/25 00:35:37;;;;;;;5.38;4.88;;;0.70;99.90;;;;;;5090613;28;20114;-51
2022/11/25 00:38:02;;;;;;;6.57;4.68;;;0.60;99.90;;;;;;5091171;28;20032;-53
2022/11/25 00:40:28;;;;;;;8.63;5.18;;;0.60;99.90;;;;;;5090214;28;20024;-52
2022/11/25 00:45:37;;;;;;;7.85;5.78;;;0.50;99.90;;;;;;5091663;28;21105;-53
2022/11/25 00:48:04;;;;;;;9.20;4.57;;;0.40;99.90;;;;;;5091003;28;20043;-53
2022/11/25 00:50:29;;;;;;;8.65;6.18;;;0.40;99.90;;;;;;5091514;28;20383;-52
2022/11/25 00:52:55;;;;;;;7.43;4.85;;;0.40;99.90;;;;;;5091226;28;20037;-51
2022/11/25 00:55:21;;;;;;;10.52;5.60;;;0.30;99.90;;;;;;5091384;28;20033;-54
2022/11/25 00:57:46;;;;;;;6.38;4.95;;;0.30;99.90;;;;;;5091117;28;20066;-53
2022/11/25 01:00:12;;;;;;;9.10;5.25;;;0.20;99.90;;;;;;5091324;28;20031;-53
2022/11/25 01:02:38;;;;;;;11.55;6.30;;;0.20;99.90;;;;;;5090650;28;20387;-53
2022/11/25 01:05:04;;;;;;;6.68;5.53;;;0.20;99.90;;;;;;5091591;28;20020;-52
2022/11/25 01:07:29;;;;;;;9.63;5.13;;;0.10;99.90;;;;;;5091332;28;20024;-52
2022/11/25 01:09:55;;;;;;;11.55;5.88;;;0.10;99.90;;;;;;5091069;28;20639;-52
2022/11/25 01:12:21;;;;;;;7.88;6.07;;;0.10;99.90;;;;;;5091210;28;20032;-51
2022/11/25 01:14:47;;;;;;;7.53;5.85;;;0.10;99.90;;;;;;5091055;28;20038;-51
2022/11/25 01:17:12;;;;;;;9.38;5.55;;;0.10;99.90;;;;;;5091276;28;20013;-50
2022/11/25 01:19:39;;;;;;;11.43;5.80;;;0.10;99.90;;;;;;5089914;28;20079;-55
2022/11/25 01:22:06;;;;;;;10.75;6.00;;;0.10;99.90;;;;;;5090896;28;20038;-53
2022/11/25 01:24:32;;;;;;;12.07;7.00;;;0.10;99.90;;;;;;5091130;28;20024;-52
2022/11/25 01:26:57;;;;;;;7.32;5.20;;;0.00;99.90;;;;;;5091094;28;20063;-53
2022/11/25 01:29:23;;;;;;;7.78;4.90;;;0.00;99.90;;;;;;5091100;28;20111;-53
2022/11/25 01:31:49;;;;;;;5.45;4.57;;;0.00;99.90;;;;;;5092889;28;20099;-54
2022/11/25 01:34:18;;;;;;;10.48;6.50;;;-0.10;99.90;;;;;;5095103;28;20024;-51
2022/11/25 01:36:44;;;;;;;10.00;4.85;;;-0.10;99.90;;;;;;5091291;28;20039;-53
2022/11/25 01:39:18;;;;;;;9.23;5.82;;;-0.10;99.90;;;;;;5094740;28;20024;-51
2022/11/25 01:41:45;;;;;;;10.15;6.18;;;-0.10;99.90;;;;;;5094321;28;20016;-49
2022/11/25 01:44:18;;;;;;;13.18;6.70;;;-0.10;99.90;;;;;;5095162;28;20039;-51
2022/11/25 01:47:22;;;;;;;8.75;6.38;;;-0.20;99.90;;;;;;5094817;28;20118;-51
2022/11/25 01:49:54;;;;;;;15.90;6.65;;;-0.20;99.90;;;;;;5094539;28;20359;-53
2022/11/25 01:52:27;;;;;;;9.13;6.22;;;-0.20;99.90;;;;;;5094799;28;20024;-51
2022/11/25 01:55:00;;;;;;;10.65;6.43;;;-0.20;99.90;;;;;;5094849;28;20024;-52
2022/11/25 01:57:38;;;;;;;;;;;-0.20;99.90;;;;;;5094862;28;20035;-51
2022/11/25 02:00:06;;;;;;;9.73;5.25;;;-0.30;99.90;;;;;;5094862;28;19912;-53
2022/11/25 02:02:32;;;;;;;9.15;5.88;;;-0.30;99.90;;;;;;5094152;28;20027;-50
2022/11/25 02:05:04;;;;;;;10.18;6.30;;;-0.30;99.90;;;;;;5093208;28;20153;-50
2022/11/25 02:07:38;;;;;;;16.33;6.20;;;-0.30;99.90;;;;;;5094709;28;20020;-51
2022/11/25 02:10:08;;;;;;;7.65;5.20;;;-0.30;99.90;;;;;;5094670;28;20051;-51
2022/11/25 02:12:36;;;;;;;13.38;6.97;;;-0.30;99.90;;;;;;5094248;28;20043;-51
2022/11/25 02:15:03;;;;;;;14.40;7.40;;;-0.40;99.90;;;;;;5094369;28;20387;-50
2022/11/25 02:17:29;;;;;;;18.20;9.38;;;-0.50;99.90;;;;;;5094129;28;20400;-51
2022/11/25 02:20:11;;;;;;;18.17;6.82;;;-0.40;99.90;;;;;;5092863;28;20133;-53
2022/11/25 02:22:52;;;;;;;13.38;6.93;;;-0.50;99.90;;;;;;5094027;28;20115;-52
2022/11/25 02:25:37;;;;;;;10.52;7.35;;;-0.50;99.90;;;;;;5094301;28;20036;-52
2022/11/25 02:28:13;;;;;;;13.95;7.45;;;-0.50;99.90;;;;;;5094015;28;20372;-51
2022/11/25 02:30:39;;;;;;;15.15;7.85;;;-0.50;99.90;;;;;;5094150;28;20020;-51
2022/11/25 02:33:05;;;;;;;24.85;7.10;;;-0.60;99.90;;;;;;5093933;28;20525;-53
2022/11/25 02:35:41;;;;;;;22.95;8.30;;;-0.60;99.90;;;;;;5093996;28;20032;-50
2022/11/25 02:38:14;;;;;;;18.23;9.27;;;-0.60;99.90;;;;;;5093800;28;20034;-50
2022/11/25 02:41:06;;;;;;;15.48;7.00;;;-0.60;99.90;;;;;;5093753;28;20047;-53
2022/11/25 02:43:32;;;;;;;13.95;7.43;;;-0.60;99.90;;;;;;5093058;28;20024;-51
2022/11/25 02:46:08;;;;;;;12.18;7.55;;;-0.60;99.90;;;;;;5093605;28;20050;-51
2022/11/25 02:48:36;;;;;;;12.70;7.65;;;-0.60;99.90;;;;;;5093848;28;20089;-54
2022/11/25 02:51:02;;;;;;;13.02;7.90;;;-0.60;99.90;;;;;;5093505;28;20042;-51
2022/11/25 02:53:28;;;;;;;17.80;7.70;;;-0.60;99.90;;;;;;5093603;28;20363;-49
2022/11/25 02:55:54;;;;;;;13.95;8.10;;;-0.60;99.90;;;;;;5093416;28;20115;-51
2022/11/25 02:58:20;;;;;;;15.25;8.25;;;-0.60;99.90;;;;;;5093566;28;20524;-51
2022/11/25 03:00:46;;;;;;;16.75;8.48;;;-0.60;99.90;;;;;;5093153;28;20066;-52
2022/11/25 03:03:12;;;;;;;23.88;7.75;;;-0.60;99.90;;;;;;5093582;28;20039;-50
2022/11/25 03:05:38;;;;;;;21.58;8.57;;;-0.70;99.90;;;;;;5093115;28;20608;-52
2022/11/25 03:08:05;;;;;;;15.23;7.22;;;-0.70;99.90;;;;;;5093433;28;20059;-50
2022/11/25 03:10:31;;;;;;;15.77;8.00;;;-0.70;99.90;;;;;;5093300;28;20028;-50
2022/11/25 03:12:56;;;;;;;23.15;9.15;;;-0.70;99.90;;;;;;5092989;28;20058;-51
2022/11/25 03:15:22;;;;;;;24.17;7.70;;;-0.70;99.90;;;;;;5093236;28;20062;-53
2022/11/25 03:17:48;;;;;;;23.35;8.82;;;-0.70;99.90;;;;;;5093039;28;20024;-52
2022/11/25 03:20:14;;;;;;;20.25;8.70;;;-0.80;99.90;;;;;;5093148;28;20110;-51
2022/11/25 03:22:41;;;;;;;27.55;9.00;;;-0.80;99.90;;;;;;5090042;28;20487;-50
2022/11/25 03:25:07;;;;;;;15.95;7.82;;;-0.80;99.90;;;;;;5072948;28;20036;-50
2022/11/25 03:27:34;;;;;;;22.27;8.32;;;-0.80;99.90;;;;;;5090718;28;20514;-51
2022/11/25 03:30:00;;;;;;;12.18;7.18;;;-0.90;99.90;;;;;;5092636;28;20039;-50
2022/11/25 03:32:25;;;;;;;82.35;9.57;;;-0.90;99.90;;;;;;5092686;28;20028;-52
2022/11/25 03:34:51;;;;;;;50.28;9.70;;;-0.90;99.90;;;;;;5092486;28;20025;-50
2022/11/25 03:37:17;;;;;;;28.55;8.05;;;-1.00;99.90;;;;;;5092834;28;20028;-52
2022/11/25 03:39:43;;;;;;;115.18;9.52;;;-1.00;99.90;;;;;;5092222;28;20382;-50
2022/11/25 03:42:08;;;;;;;59.63;8.02;;;-1.00;99.90;;;;;;5092711;28;20107;-51
2022/11/25 03:44:34;;;;;;;104.88;9.98;;;-1.10;99.90;;;;;;5092756;28;20020;-52
2022/11/25 03:46:59;;;;;;;20.95;8.25;;;-1.10;99.90;;;;;;5092301;28;20028;-49
2022/11/25 03:49:25;;;;;;;11.70;8.50;;;-1.10;99.90;;;;;;5091335;28;20028;-50
2022/11/25 03:51:51;;;;;;;15.57;8.45;;;-1.10;99.90;;;;;;5092460;28;20028;-51
2022/11/25 03:54:16;;;;;;;18.88;9.23;;;-1.00;99.90;;;;;;5091644;28;20024;-50
2022/11/25 03:56:42;;;;;;;18.58;7.90;;;-1.00;99.90;;;;;;5092124;28;20110;-52
2022/11/25 03:59:08;;;;;;;10.50;7.10;;;-1.00;99.90;;;;;;5092155;28;20028;-51
2022/11/25 04:01:33;;;;;;;12.45;7.10;;;-1.00;99.90;;;;;;5092339;28;20085;-51
2022/11/25 04:03:59;;;;;;;11.73;6.68;;;-1.10;99.90;;;;;;5092359;28;20028;-50
2022/11/25 04:06:25;;;;;;;11.82;6.53;;;-1.10;99.90;;;;;;5092099;28;20073;-52
2022/11/25 04:08:51;;;;;;;15.00;6.20;;;-1.10;99.90;;;;;;5092057;28;20035;-50
2022/11/25 04:11:16;;;;;;;8.75;5.90;;;-1.10;99.90;;;;;;5092159;28;20027;-51
2022/11/25 04:13:42;;;;;;;11.25;6.50;;;-1.20;99.90;;;;;;5091947;28;20035;-50
2022/11/25 04:16:25;;;;;;;13.90;5.85;;;-1.10;99.90;;;;;;5091874;28;20153;-51
2022/11/25 04:18:50;;;;;;;9.23;5.50;;;-1.20;99.90;;;;;;5092100;28;20028;-50
2022/11/25 04:21:16;;;;;;;10.63;7.22;;;-1.20;99.90;;;;;;5091678;28;20123;-51
2022/11/25 04:23:41;;;;;;;15.02;8.25;;;-1.10;99.90;;;;;;5091895;28;20574;-52
2022/11/25 04:26:07;;;;;;;41.78;18.30;;;-1.20;99.90;;;;;;5091768;28;20032;-50
2022/11/25 04:28:33;;;;;;;30.90;13.60;;;-1.20;99.90;;;;;;5090358;28;20367;-51
2022/11/25 04:30:58;;;;;;;19.25;10.07;;;-1.10;99.90;;;;;;5091896;28;20039;-51
2022/11/25 04:33:24;;;;;;;17.25;8.60;;;-1.20;99.90;;;;;;5090488;28;20036;-49
2022/11/25 04:35:50;;;;;;;13.13;7.20;;;-1.20;99.90;;;;;;5090502;28;20031;-53
2022/11/25 04:38:15;;;;;;;12.52;6.28;;;-1.20;99.90;;;;;;5091835;28;20137;-51
2022/11/25 04:40:41;;;;;;;9.38;5.47;;;-1.20;99.90;;;;;;5091559;28;20032;-50
2022/11/25 04:43:07;;;;;;;10.50;5.68;;;-1.20;99.90;;;;;;5090302;28;20043;-50
2022/11/25 04:45:33;;;;;;;11.15;5.18;;;-1.30;99.90;;;;;;5091466;28;20026;-52
2022/11/25 04:47:58;;;;;;;8.93;5.55;;;-1.20;99.90;;;;;;5090280;28;20035;-52
2022/11/25 04:50:24;;;;;;;12.52;5.75;;;-1.30;99.90;;;;;;5091083;28;20139;-50
2022/11/25 04:52:50;;;;;;;11.68;5.25;;;-1.30;99.90;;;;;;5090005;28;20054;-52
2022/11/25 04:55:15;;;;;;;10.90;4.68;;;-1.40;99.90;;;;;;5090751;28;20032;-51
2022/11/25 04:57:41;;;;;;;11.05;5.80;;;-1.40;99.90;;;;;;5090755;28;20024;-52
2022/11/25 05:00:08;;;;;;;9.45;5.28;;;-1.40;99.90;;;;;;5090535;28;20016;-49
2022/11/25 05:02:34;;;;;;;11.52;4.68;;;-1.40;99.90;;;;;;5090444;28;20058;-53
2022/11/25 05:05:00;;;;;;;6.10;5.00;;;-1.40;99.90;;;;;;5090630;28;20064;-49
2022/11/25 05:07:27;;;;;;;5.32;4.50;;;-1.40;99.90;;;;;;5094090;28;20051;-52
2022/11/25 05:09:53;;;;;;;16.35;5.05;;;-1.40;99.90;;;;;;5094624;28;20404;-52
2022/11/25 05:12:22;;;;;;;19.13;6.00;;;-1.40;99.90;;;;;;5095220;28;20067;-50
2022/11/25 05:14:48;;;;;;;9.82;5.07;;;-1.40;99.90;;;;;;5095499;28;20073;-51
2022/11/25 05:17:19;;;;;;;6.13;5.28;;;-1.40;99.90;;;;;;5095419;28;20103;-51
2022/11/25 05:19:46;;;;;;;12.88;6.68;;;-1.40;99.90;;;;;;5095310;28;20119;-50
2022/11/25 05:22:17;;;;;;;14.57;6.68;;;-1.40;99.90;;;;;;5095209;28;20028;-50
2022/11/25 05:24:43;;;;;;;7.32;5.38;;;-1.50;99.90;;;;;;5094983;28;20056;-52
2022/11/25 05:27:09;;;;;;;8.50;5.38;;;-1.50;99.90;;;;;;5095114;28;20052;-52
2022/11/25 05:29:36;;;;;;;17.50;7.75;;;-1.50;99.90;;;;;;5095449;28;20024;-51
2022/11/25 05:32:02;;;;;;;17.02;5.85;;;-1.50;99.90;;;;;;5095016;28;20070;-51
2022/11/25 05:34:28;;;;;;;9.85;5.35;;;-1.50;99.90;;;;;;5095182;28;20028;-51
2022/11/25 05:36:54;;;;;;;11.63;5.82;;;-1.50;99.90;;;;;;5094713;28;20028;-53
2022/11/25 05:39:20;;;;;;;8.23;6.43;;;-1.50;99.90;;;;;;5095142;28;20013;-51
2022/11/25 05:41:45;;;;;;;15.18;8.00;;;-1.50;99.90;;;;;;5094804;28;20024;-51
2022/11/25 05:44:11;;;;;;;15.43;7.50;;;-1.50;99.90;;;;;;5095131;28;20069;-50
2022/11/25 05:46:37;;;;;;;15.82;6.00;;;-1.50;99.90;;;;;;5095072;28;20031;-52
2022/11/25 05:49:03;;;;;;;12.80;7.78;;;-1.50;99.90;;;;;;5095000;28;20036;-52
2022/11/25 05:51:29;;;;;;;12.70;6.18;;;-1.50;99.90;;;;;;5094383;28;20513;-53
2022/11/25 05:53:55;;;;;;;9.45;6.15;;;-1.50;99.90;;;;;;5094063;28;20475;-53
2022/11/25 05:56:22;;;;;;;15.80;8.15;;;-1.50;99.90;;;;;;5094433;28;20035;-51
2022/11/25 05:58:48;;;;;;;13.30;6.85;;;-1.50;99.90;;;;;;5094466;28;20016;-54
2022/11/25 06:01:15;;;;;;;19.65;6.00;;;-1.50;99.90;;;;;;5094725;28;20519;-52
2022/11/25 06:03:42;;;;;;;20.55;6.15;;;-1.50;99.90;;;;;;5094178;28;20024;-56
2022/11/25 06:06:08;;;;;;;10.70;5.45;;;-1.50;99.90;;;;;;5094440;28;20108;-54
2022/11/25 06:08:35;;;;;;;12.27;6.30;;;-1.50;99.90;;;;;;5092575;28;20142;-55
2022/11/25 06:11:10;;;;;;;19.55;6.07;;;-1.50;99.90;;;;;;5094217;28;20356;-52
2022/11/25 06:13:37;;;;;;;11.65;6.57;;;-1.50;99.90;;;;;;5093070;28;20032;-52
2022/11/25 06:16:08;;;;;;;8.80;5.78;;;-1.50;99.90;;;;;;5093871;28;20035;-52
2022/11/25 06:18:35;;;;;;;17.42;7.30;;;-1.50;99.90;;;;;;5093656;28;20394;-51
2022/11/25 06:21:01;;;;;;;18.58;9.85;;;-1.50;99.90;;;;;;5094067;28;20174;-52
2022/11/25 06:23:26;;;;;;;8.70;6.10;;;-1.50;99.90;;;;;;5094331;28;20110;-54
2022/11/25 06:25:52;;;;;;;13.35;6.20;;;-1.40;99.90;;;;;;5093801;28;20086;-54
2022/11/25 06:28:18;;;;;;;21.52;7.90;;;-1.40;99.90;;;;;;5094245;28;20031;-50
2022/11/25 06:30:43;;;;;;;23.27;8.63;;;-1.40;99.90;;;;;;5094071;28;20085;-51
2022/11/25 06:33:09;;;;;;;18.13;7.53;;;-1.40;99.90;;;;;;5094247;28;20051;-54
2022/11/25 06:35:35;;;;;;;21.98;7.85;;;-1.40;99.90;;;;;;5094130;28;20027;-53
2022/11/25 06:38:01;;;;;;;14.18;7.20;;;-1.40;99.90;;;;;;5092656;28;20024;-51
2022/11/25 06:40:27;;;;;;;11.32;6.90;;;-1.40;99.90;;;;;;5092637;28;20329;-51
2022/11/25 06:42:52;;;;;;;17.00;7.70;;;-1.30;99.90;;;;;;5093715;28;20036;-56
2022/11/25 06:45:18;;;;;;;14.02;7.45;;;-1.30;99.90;;;;;;5093735;28;20459;-55
2022/11/25 06:47:43;;;;;;;19.13;9.18;;;-1.30;99.90;;;;;;5093471;28;20028;-52
2022/11/25 06:50:10;;;;;;;17.25;8.75;;;-1.30;99.90;;;;;;5092995;28;20556;-53
2022/11/25 06:52:35;;;;;;;19.63;7.68;;;-1.20;99.90;;;;;;5093248;28;20028;-52
2022/11/25 06:55:01;;;;;;;15.93;7.97;;;-1.30;99.90;;;;;;5093493;28;20065;-53
2022/11/25 06:57:27;;;;;;;28.42;7.88;;;-1.20;99.90;;;;;;5093782;28;20056;-51
2022/11/25 06:59:52;;;;;;;21.42;9.70;;;-1.20;99.90;;;;;;5093586;28;20090;-51
2022/11/25 07:02:18;;;;;;;23.48;9.88;;;-1.20;99.90;;;;;;5093543;28;20032;-52
2022/11/25 07:04:44;;;;;;;22.55;11.75;;;-1.10;99.90;;;;;;5092044;28;20076;-51
2022/11/25 07:07:09;;;;;;;31.67;11.77;;;-1.10;99.90;;;;;;5092212;28;20020;-51
2022/11/25 07:09:35;;;;;;;27.25;11.07;;;-1.00;99.90;;;;;;5091878;28;20024;-52
2022/11/25 07:12:01;;;;;;;22.08;11.48;;;-1.00;99.90;;;;;;5091769;28;20020;-52
2022/11/25 07:14:27;;;;;;;35.80;15.93;;;-1.00;99.90;;;;;;5091998;28;20027;-54
2022/11/25 07:16:52;;;;;;;55.42;27.00;;;-1.00;99.90;;;;;;5091855;28;20027;-53
2022/11/25 07:19:18;;;;;;;58.45;21.95;;;-1.00;99.90;;;;;;5091872;28;20020;-53
2022/11/25 07:21:45;;;;;;;68.85;30.55;;;-0.90;99.90;;;;;;5090561;28;20206;-51
2022/11/25 07:24:13;;;;;;;94.43;47.58;;;-0.90;99.90;;;;;;5091830;28;20020;-50
2022/11/25 07:26:40;;;;;;;75.70;37.85;;;-0.90;99.90;;;;;;5090433;28;20062;-52
2022/11/25 07:29:09;;;;;;;66.80;30.92;;;-0.90;99.90;;;;;;5091022;28;20034;-52
2022/11/25 07:31:41;;;;;;;82.50;41.80;;;-0.90;99.90;;;;;;5091795;28;20036;-52
2022/11/25 07:34:17;;;;;;;116.28;43.83;;;-0.90;99.90;;;;;;5091630;28;20024;-53
2022/11/25 07:36:43;;;;;;;94.25;48.72;;;-0.90;99.90;;;;;;5091463;28;20115;-52
2022/11/25 07:39:18;;;;;;;105.60;50.45;;;-0.90;99.90;;;;;;5091533;28;20101;-53
2022/11/25 07:41:44;;;;;;;95.00;41.97;;;-0.80;99.90;;;;;;5091427;28;20027;-52
2022/11/25 07:44:12;;;;;;;84.75;41.13;;;-0.70;99.90;;;;;;5091664;28;20404;-51
2022/11/25 07:46:44;;;;;;;82.18;40.33;;;-0.60;99.90;;;;;;5091435;28;20479;-56
2022/11/25 07:49:17;;;;;;;75.20;39.28;;;-0.50;99.90;;;;;;5091454;28;20024;-55
2022/11/25 07:51:54;;;;;;;95.78;45.05;;;-0.40;99.90;;;;;;5091182;28;20028;-55
2022/11/25 07:54:20;;;;;;;65.45;31.42;;;-0.30;99.90;;;;;;5091307;28;20035;-51
2022/11/25 07:56:47;;;;;;;68.25;34.28;;;-0.30;99.90;;;;;;5090964;28;20495;-53
2022/11/25 07:59:16;;;;;;;63.92;31.65;;;-0.20;99.90;;;;;;5091172;28;20054;-52
2022/11/25 08:01:42;;;;;;;53.47;33.83;;;-0.10;99.90;;;;;;5090947;28;20399;-52
2022/11/25 08:04:10;;;;;;;50.95;30.08;;;0.00;99.90;;;;;;5091154;28;20039;-52
2022/11/25 08:06:41;;;;;;;54.40;28.92;;;0.10;99.90;;;;;;5091151;28;20114;-52
2022/11/25 08:09:08;;;;;;;36.67;22.35;;;0.20;99.90;;;;;;5089580;28;20447;-52
2022/11/25 08:11:33;;;;;;;41.95;23.17;;;0.20;99.90;;;;;;5091033;28;20028;-52
2022/11/25 08:13:59;;;;;;;38.75;20.02;;;0.40;99.90;;;;;;5090747;28;20035;-51
2022/11/25 08:16:27;;;;;;;37.63;18.38;;;0.50;99.90;;;;;;5091038;28;20073;-51
2022/11/25 08:18:53;;;;;;;17.50;10.52;;;0.60;99.90;;;;;;5090817;28;20012;-53
2022/11/25 08:21:20;;;;;;;14.10;7.13;;;0.90;99.90;;;;;;5090721;28;20434;-52
2022/11/25 08:23:51;;;;;;;11.90;7.93;;;1.20;99.90;;;;;;5090631;28;20036;-53
2022/11/25 08:26:35;;;;;;;18.77;10.93;;;1.30;99.90;;;;;;5090726;28;20028;-54
2022/11/25 08:29:02;;;;;;;24.75;11.45;;;1.40;99.90;;;;;;5090643;28;20383;-52
2022/11/25 08:31:33;;;;;;;16.02;10.63;;;1.70;99.90;;;;;;5090759;28;20039;-51
2022/11/25 08:33:59;;;;;;;17.20;10.95;;;1.90;99.90;;;;;;5090407;28;20062;-52
2022/11/25 08:36:26;;;;;;;19.73;13.63;;;2.00;99.90;;;;;;5090451;28;20456;-52
2022/11/25 08:38:56;;;;;;;20.73;12.80;;;2.20;99.90;;;;;;5090590;28;20024;-51
2022/11/25 08:41:31;;;;;;;20.38;13.07;;;2.30;99.90;;;;;;5089103;28;20032;-52
2022/11/25 08:43:59;;;;;;;23.90;13.15;;;2.40;99.90;;;;;;5090373;28;20479;-52
2022/11/25 08:46:32;;;;;;;35.22;24.17;;;2.50;99.90;;;;;;5090421;28;20445;-51
2022/11/25 08:48:58;;;;;;;;;;;2.60;99.90;;;;;;5090787;28;20044;-52
2022/11/25 08:51:27;;;;;;;29.35;26.17;;;2.60;99.90;;;;;;5090552;28;19998;-51
2022/11/25 08:53:53;;;;;;;21.83;15.23;;;2.60;99.90;;;;;;5090315;28;20119;-52
2022/11/25 08:56:22;;;;;;;20.33;14.43;;;2.70;99.90;;;;;;5090359;28;20020;-51
2022/11/25 08:58:48;;;;;;;18.55;12.98;;;2.70;99.90;;;;;;5090142;28;20025;-53
2022/11/25 09:01:15;;;;;;;15.98;12.50;;;2.90;99.90;;;;;;5089215;28;20035;-53
2022/11/25 09:03:47;;;;;;;15.40;11.00;;;3.30;99.90;;;;;;5090172;28;20024;-52
2022/11/25 09:06:13;;;;;;;14.53;8.97;;;3.70;99.90;;;;;;5090491;28;20032;-51
2022/11/25 09:08:41;;;;;;;12.38;9.13;;;3.90;99.90;;;;;;5090079;28;20266;-54
2022/11/25 09:11:07;;;;;;;13.63;8.50;;;4.20;99.90;;;;;;5088934;28;20343;-54
2022/11/25 09:13:33;;;;;;;12.40;8.85;;;4.30;99.90;;;;;;5090230;28;20055;-53
2022/11/25 09:16:00;;;;;;;20.75;9.68;;;4.80;99.90;;;;;;5089918;28;20070;-52
2022/11/25 09:18:29;;;;;;;10.75;7.88;;;5.30;99.90;;;;;;5090264;28;20089;-53
2022/11/25 09:20:55;;;;;;;13.20;7.97;;;5.80;99.90;;;;;;5089856;28;20040;-53
2022/11/25 09:23:22;;;;;;;25.55;17.52;;;6.70;99.90;;;;;;5088935;28;20164;-51
2022/11/25 09:26:07;;;;;;;19.23;16.88;;;7.90;99.90;;;;;;5090129;28;20475;-54
2022/11/25 09:28:33;;;;;;;8.63;7.43;;;8.90;99.90;;;;;;5089961;28;20036;-52
2022/11/25 09:31:05;;;;;;;7.57;4.82;;;9.60;99.90;;;;;;5088627;28;20434;-52
2022/11/25 09:33:30;;;;;;;14.75;8.13;;;9.50;99.90;;;;;;5089992;28;20034;-52
2022/11/25 09:35:59;;;;;;;10.48;7.32;;;9.30;99.90;;;;;;5089927;28;20099;-51
2022/11/25 09:38:25;;;;;;;9.00;6.82;;;9.00;99.90;;;;;;5090003;28;20111;-52
2022/11/25 09:46:40;;;;;;;23.45;11.60;;;8.70;99.90;;;;;;5089727;28;20103;-54
2022/11/25 09:47:23;;;;;;;7.57;5.25;;;8.10;99.90;;;;;;5089829;28;20407;-54
2022/11/25 09:49:51;;;;;;;;;;;8.00;99.90;;;;;;5089155;28;20031;-55
2022/11/25 09:52:44;;;;;;;17.70;7.47;;;8.10;99.90;;;;;;5091099;28;19931;-56
2022/11/25 09:55:21;;;;;;;7.00;3.40;;;8.00;99.90;;;;;;5092490;28;20045;-51
2022/11/25 09:58:10;;;;;;;8.02;3.97;;;8.10;99.90;;;;;;5093602;28;20028;-52
2022/11/25 10:00:41;;;;;;;9.70;4.70;;;8.00;99.90;;;;;;5093510;28;20098;-54
2022/11/25 10:03:13;;;;;;;9.32;4.53;;;7.80;99.90;;;;;;5093565;28;20421;-52
2022/11/25 10:05:49;;;;;;;9.52;5.00;;;7.80;99.90;;;;;;5093483;28;20047;-54
2022/11/25 10:08:22;;;;;;;20.95;11.98;;;7.60;99.90;;;;;;5093496;28;20020;-53
2022/11/25 10:10:58;;;;;;;;;;;7.40;99.90;;;;;;5092445;28;20503;-51
2022/11/25 10:13:47;;;;;;;9.38;5.43;;;7.40;99.90;;;;;;5093156;28;20363;-54
2022/11/25 10:16:29;;;;;;;11.68;6.00;;;7.40;99.90;;;;;;5092139;28;20058;-53
2022/11/25 10:19:02;;;;;;;11.63;6.22;;;7.50;99.90;;;;;;5092914;28;20020;-51
2022/11/25 10:21:28;;;;;;;8.83;5.23;;;7.20;99.90;;;;;;5093675;28;20048;-52
2022/11/25 10:23:54;;;;;;;9.48;4.53;;;7.10;99.90;;;;;;5093196;28;20031;-53
2022/11/25 10:26:24;;;;;;;10.63;5.05;;;7.10;99.90;;;;;;5091976;28;20375;-53
2022/11/25 10:29:05;;;;;;;12.32;6.28;;;7.10;99.90;;;;;;5092818;28;20062;-54
2022/11/25 10:31:35;;;;;;;14.43;5.47;;;7.10;99.90;;;;;;5092661;28;20047;-53
2022/11/25 10:34:10;;;;;;;6.70;5.13;;;7.20;99.90;;;;;;5092630;28;20065;-52
2022/11/25 10:36:40;;;;;;;9.80;5.00;;;7.20;99.90;;;;;;5092981;28;20031;-52
2022/11/25 10:39:23;;;;;;;6.95;4.88;;;7.40;99.90;;;;;;5092762;28;20425;-54
2022/11/25 10:41:58;;;;;;;20.52;5.82;;;7.20;99.90;;;;;;5092604;28;20019;-51
2022/11/25 10:44:33;;;;;;;6.68;4.65;;;7.30;99.90;;;;;;5092706;28;20043;-52
2022/11/25 10:47:14;;;;;;;14.95;4.90;;;7.40;99.90;;;;;;5092445;28;20027;-52
2022/11/25 10:49:58;;;;;;;6.38;5.03;;;7.30;99.90;;;;;;5092616;28;20016;-52
2022/11/25 10:52:29;;;;;;;9.60;5.30;;;7.10;99.90;;;;;;5092767;28;20024;-53
2022/11/25 10:55:10;;;;;;;8.77;4.30;;;7.10;99.90;;;;;;5092458;28;20028;-52
2022/11/25 10:57:36;;;;;;;7.57;4.53;;;7.20;99.90;;;;;;5092609;28;20016;-52
2022/11/25 11:00:04;;;;;;;10.82;4.65;;;7.30;99.90;;;;;;5092188;28;20379;-51
2022/11/25 11:02:40;;;;;;;7.15;4.88;;;7.40;99.90;;;;;;5092352;28;20070;-52
2022/11/25 11:05:09;;;;;;;12.65;8.85;;;7.60;99.90;;;;;;5092322;28;20020;-53
2022/11/25 11:07:39;;;;;;;7.90;4.18;;;7.90;99.90;;;;;;5091996;28;20391;-54
2022/11/25 11:10:16;;;;;;;9.80;4.68;;;8.10;99.90;;;;;;5092621;28;20475;-54
2022/11/25 11:12:59;;;;;;;6.05;4.32;;;7.90;99.90;;;;;;5092537;28;20024;-54
2022/11/25 11:15:52;;;;;;;12.23;5.65;;;8.20;99.90;;;;;;5092853;28;20025;-51
2022/11/25 11:18:40;;;;;;;6.65;4.03;;;8.40;99.90;;;;;;5089597;28;20033;-51
2022/11/25 11:21:20;;;;;;;127.68;97.18;;;8.60;99.90;;;;;;5091862;28;20051;-54
2022/11/25 11:23:51;;;;;;;16.60;8.60;;;8.70;99.90;;;;;;5092793;28;20028;-51
2022/11/25 11:26:32;;;;;;;6.82;4.50;;;8.80;99.90;;;;;;5092903;28;20019;-51
2022/11/25 11:29:04;;;;;;;5.35;3.60;;;9.20;99.90;;;;;;5092958;28;20119;-53
2022/11/25 11:31:38;;;;;;;9.57;3.97;;;9.20;99.90;;;;;;5092952;28;20024;-52
2022/11/25 11:34:35;;;;;;;9.38;5.18;;;9.20;99.90;;;;;;5092825;28;20023;-50
2022/11/25 11:37:28;;;;;;;8.38;4.00;;;9.40;99.90;;;;;;5092915;28;20066;-50
2022/11/25 11:40:08;;;;;;;9.02;4.63;;;9.60;99.90;;;;;;5091420;28;20529;-51
2022/11/25 11:42:47;;;;;;;40.17;22.70;;;9.90;99.90;;;;;;5092660;28;20088;-50
2022/11/25 11:45:44;;;;;;;138.55;79.18;;;10.00;99.90;;;;;;5092758;28;20548;-53
2022/11/25 11:48:27;;;;;;;13.38;8.40;;;10.10;99.90;;;;;;5092592;28;20421;-51
2022/11/25 11:51:19;;;;;;;10.57;5.43;;;10.10;99.90;;;;;;5092535;28;20035;-51
2022/11/25 11:53:53;;;;;;;10.68;4.65;;;10.30;99.90;;;;;;5092242;28;20039;-51
2022/11/25 11:56:28;;;;;;;6.50;4.40;;;10.40;99.90;;;;;;5092459;28;20594;-52
2022/11/25 11:59:24;;;;;;;12.50;4.28;;;10.60;99.90;;;;;;5092462;28;20020;-52
2022/11/25 12:02:05;;;;;;;9.80;4.80;;;10.50;99.90;;;;;;5092426;28;20034;-51
2022/11/25 12:04:58;;;;;;;9.80;4.43;;;10.20;99.90;;;;;;5090877;28;20106;-50
2022/11/25 12:07:40;;;;;;;13.95;5.88;;;10.20;99.90;;;;;;5092103;28;20066;-51
2022/11/25 12:10:14;;;;;;;7.40;4.82;;;10.00;99.90;;;;;;5091286;28;20055;-52
2022/11/25 12:12:55;;;;;;;5.35;4.00;;;9.80;99.90;;;;;;5091752;28;20028;-51
2022/11/25 12:15:50;;;;;;;7.35;5.50;;;9.90;99.90;;;;;;5073319;28;20024;-53
2022/11/25 12:18:27;;;;;;;7.70;3.75;;;9.90;99.90;;;;;;5071624;28;20048;-51
2022/11/25 12:21:05;;;;;;;5.93;4.28;;;10.20;99.90;;;;;;5071512;28;20049;-50
2022/11/25 12:24:03;;;;;;;7.72;3.63;;;10.30;99.90;;;;;;5070234;28;20090;-52
2022/11/25 12:26:48;;;;;;;10.32;4.60;;;10.50;99.90;;;;;;5071755;28;20021;-50
2022/11/25 12:29:33;;;;;;;7.50;3.70;;;11.00;99.90;;;;;;5071797;28;20032;-51
2022/11/25 12:32:39;;;;;;;10.30;3.70;;;11.30;99.90;;;;;;5071834;28;20085;-52
2022/11/25 12:35:13;;;;;;;15.68;3.67;;;11.50;99.60;;;;;;5071749;28;20123;-50
2022/11/25 12:38:10;;;;;;;5.90;3.45;;;11.00;99.90;;;;;;5069755;28;20024;-55
2022/11/25 12:40:51;;;;;;;7.90;3.75;;;10.80;99.90;;;;;;5059265;28;20036;-53
2022/11/25 12:43:19;;;;;;;7.88;4.53;;;10.80;99.90;;;;;;5071966;28;20033;-49
2022/11/25 12:45:50;;;;;;;5.57;4.32;;;10.50;99.90;;;;;;5060115;28;20047;-51
2022/11/25 12:48:16;;;;;;;12.43;5.22;;;10.30;99.90;;;;;;5080486;28;20043;-53
2022/11/25 12:51:03;;;;;;;5.57;4.57;;;10.10;99.90;;;;;;5077739;28;20028;-50
2022/11/25 12:53:49;;;;;;;11.50;5.50;;;9.80;99.90;;;;;;5080248;28;20130;-52
2022/11/25 12:56:26;;;;;;;10.55;5.63;;;9.50;99.90;;;;;;5080824;28;20101;-51
2022/11/25 12:59:08;;;;;;;10.07;4.20;;;9.30;99.90;;;;;;5080476;28;20032;-51
2022/11/25 13:01:51;;;;;;;20.50;6.97;;;9.20;99.90;;;;;;5080733;28;20591;-51
2022/11/25 13:04:44;;;;;;;58.78;31.83;;;9.20;99.90;;;;;;5081118;28;20467;-52
2022/11/25 13:07:26;;;;;;;13.18;7.22;;;8.90;99.90;;;;;;5080732;28;20364;-51